Terminal Aerodrome Forecast
Issued by NWS

Home | Current Version | Previous Version | Text Only | Print | Product List | Glossary On
Versions: 1 2 3 4 5 6 7 8 9 10 11 12 13 14 15 16 17 18 19 20 21
362
FTUS43 KGRB 242130 AAA
TAFMTW
TAF AMD
KMTW 242130Z 2422/2518 05008KT P6SM FEW030
     FM250200 04004KT P6SM SKC
     FM251300 16004KT P6SM SKC
     FM251600 17008KT P6SM SCT250=

USA.gov is the U.S. government's official web portal to all federal, state and local government web resources and services.